Time;durP1;ratioP1;P1;durP2;ratioP2;P2;SDS_P1;SDS_P2;PMS_P1;PMS_P2;Temp;Humidity;BMP_temperature;BMP_pressure;BME280_temperature;BME280_humidity;BME280_pressure;Samples;Min_cycle;Max_cycle;Signal;HPM_P1;HPM_P2
2023/09/15 00:02:55;;;;;;;;;;;11.60;63.60;;;;;;4011856;29;19924;-85
2023/09/15 00:05:13;;;;;;;;;;;11.60;63.70;;;;;;4029565;29;19923;-86
2023/09/15 00:12:22;;;;;;;;;;;11.60;63.90;;;;;;4123322;28;19980;-85
2023/09/15 00:14:29;;;;;;;;;;;11.70;64.30;;;;;;4122862;28;19922;-85
2023/09/15 00:16:30;;;;;;;;;;;11.60;64.20;;;;;;4107356;28;19984;-86
2023/09/15 00:18:31;;;;;;;;;;;11.70;64.20;;;;;;4120130;28;20414;-85
2023/09/15 00:20:31;;;;;;;;;;;11.70;64.60;;;;;;4110793;28;19918;-85
2023/09/15 00:22:33;;;;;;;;;;;11.70;64.60;;;;;;4106945;28;19918;-85
2023/09/15 00:24:37;;;;;;;;;;;11.70;64.60;;;;;;4104267;28;19993;-86
2023/09/15 00:26:38;;;;;;;;;;;11.70;64.70;;;;;;4105513;28;19921;-85
2023/09/15 00:28:39;;;;;;;;;;;11.70;64.70;;;;;;4094633;28;19922;-85
2023/09/15 00:30:40;;;;;;;;;;;11.70;64.60;;;;;;4113225;28;19934;-86
2023/09/15 00:32:41;;;;;;;;;;;11.70;64.80;;;;;;4138540;28;19985;-85
2023/09/15 00:34:44;;;;;;;;;;;11.70;64.90;;;;;;4125665;28;19929;-85
2023/09/15 00:36:45;;;;;;;;;;;11.70;64.90;;;;;;4105207;28;19922;-85
2023/09/15 00:38:46;;;;;;;;;;;11.80;65.00;;;;;;4090541;28;19915;-86
2023/09/15 00:40:46;;;;;;;;;;;11.60;64.90;;;;;;4091907;28;19925;-85
2023/09/15 00:43:09;;;;;;;;;;;11.80;65.10;;;;;;4105893;28;20005;-86
2023/09/15 00:45:57;;;;;;;;;;;11.60;65.10;;;;;;4107199;28;19914;-85
2023/09/15 00:48:18;;;;;;;;;;;11.70;65.10;;;;;;4108563;28;19918;-86
2023/09/15 00:50:39;;;;;;;;;;;11.70;65.10;;;;;;4106873;28;19925;-85
2023/09/15 00:53:01;;;;;;;;;;;11.60;65.80;;;;;;4114413;28;19918;-85
2023/09/15 00:55:25;;;;;;;;;;;11.70;65.00;;;;;;4101286;28;19976;-85
2023/09/15 00:57:47;;;;;;;;;;;11.60;64.90;;;;;;4118177;28;19914;-85
2023/09/15 01:00:13;;;;;;;;;;;11.60;64.80;;;;;;4106646;28;19918;-85
2023/09/15 01:02:36;;;;;;;;;;;11.60;65.10;;;;;;4103672;28;19918;-85
2023/09/15 01:04:40;;;;;;;;;;;11.70;65.40;;;;;;4103423;28;19965;-85
2023/09/15 01:06:42;;;;;;;;;;;11.60;65.20;;;;;;4102735;28;19953;-85
2023/09/15 01:08:43;;;;;;;;;;;11.70;65.30;;;;;;4101806;28;19922;-85
2023/09/15 01:10:46;;;;;;;;;;;11.60;65.40;;;;;;4107273;28;19929;-85
2023/09/15 01:12:48;;;;;;;;;;;11.70;65.50;;;;;;4106302;28;19918;-85
2023/09/15 01:14:49;;;;;;;;;;;11.70;65.40;;;;;;4102657;28;20036;-85
2023/09/15 01:17:01;;;;;;;;;;;11.60;65.50;;;;;;4110504;28;20546;-86
2023/09/15 01:19:19;;;;;;;;;;;11.60;65.30;;;;;;4099359;28;19914;-84
2023/09/15 01:21:24;;;;;;;;;;;11.60;65.20;;;;;;4102976;28;19922;-85
2023/09/15 01:23:30;;;;;;;;;;;11.70;65.40;;;;;;4104317;28;20499;-85
2023/09/15 01:25:52;;;;;;;;;;;11.60;65.60;;;;;;4106336;28;19922;-86
2023/09/15 01:27:59;;;;;;;;;;;11.60;65.60;;;;;;4116755;28;19914;-86
2023/09/15 01:30:00;;;;;;;;;;;11.60;65.70;;;;;;4110575;28;19917;-85
2023/09/15 01:32:03;;;;;;;;;;;11.60;66.40;;;;;;4108047;28;19910;-85
2023/09/15 01:34:05;;;;;;;;;;;11.60;65.80;;;;;;4104806;28;20512;-86
2023/09/15 01:36:06;;;;;;;;;;;11.60;65.80;;;;;;4091856;28;19915;-85
2023/09/15 01:38:07;;;;;;;;;;;11.70;65.90;;;;;;4107019;28;20081;-85
2023/09/15 01:40:08;;;;;;;;;;;11.60;65.80;;;;;;4103810;28;19925;-85
2023/09/15 01:42:08;;;;;;;;;;;11.60;65.90;;;;;;4108314;28;20009;-85
2023/09/15 01:44:09;;;;;;;;;;;11.60;65.90;;;;;;4106355;28;19910;-86
2023/09/15 01:46:23;;;;;;;;;;;11.60;66.00;;;;;;4103366;28;19910;-85
2023/09/15 01:48:24;;;;;;;;;;;11.60;66.00;;;;;;4087448;28;19946;-85
2023/09/15 01:50:28;;;;;;;;;;;11.60;65.90;;;;;;4131339;28;19930;-85
2023/09/15 01:52:29;;;;;;;;;;;11.50;66.00;;;;;;4143367;28;19917;-85
2023/09/15 01:54:30;;;;;;;;;;;11.50;66.00;;;;;;4107163;28;19918;-85
2023/09/15 01:56:30;;;;;;;;;;;11.60;66.30;;;;;;4103672;28;19950;-85
2023/09/15 01:58:31;;;;;;;;;;;11.50;66.10;;;;;;4106777;28;20065;-85
2023/09/15 02:00:39;;;;;;;;;;;11.50;66.10;;;;;;4117186;28;19972;-86
2023/09/15 02:02:40;;;;;;;;;;;11.50;66.10;;;;;;4105074;28;19930;-84
2023/09/15 02:04:40;;;;;;;;;;;11.40;66.10;;;;;;4099915;28;20009;-85
2023/09/15 02:06:42;;;;;;;;;;;11.50;66.10;;;;;;4117703;28;19920;-85
2023/09/15 02:08:44;;;;;;;;;;;11.40;66.10;;;;;;4105173;28;20005;-85
2023/09/15 02:10:45;;;;;;;;;;;11.40;66.10;;;;;;4100352;28;19925;-85
2023/09/15 02:12:46;;;;;;;;;;;11.40;66.20;;;;;;4103825;28;20859;-85
2023/09/15 02:14:47;;;;;;;;;;;11.40;67.10;;;;;;4106732;28;19929;-85
2023/09/15 02:16:48;;;;;;;;;;;11.40;66.30;;;;;;4120056;28;19929;-85
2023/09/15 02:18:49;;;;;;;;;;;11.30;66.30;;;;;;4104817;28;20344;-85
2023/09/15 02:20:56;;;;;;;;;;;11.40;66.30;;;;;;4095870;28;19922;-84
2023/09/15 02:23:04;;;;;;;;;;;11.30;66.20;;;;;;4101303;28;20282;-85
2023/09/15 02:25:06;;;;;;;;;;;11.30;66.40;;;;;;4103239;28;19918;-85
2023/09/15 02:27:07;;;;;;;;;;;11.20;66.30;;;;;;4107520;28;19922;-85
2023/09/15 02:29:08;;;;;;;;;;;11.20;66.30;;;;;;4119737;28;19944;-85
2023/09/15 02:31:09;;;;;;;;;;;11.20;66.40;;;;;;4108653;28;20388;-85
2023/09/15 02:33:26;;;;;;;;;;;;;;;;;;;;;
2023/09/15 02:35:35;;;;;;;;;;;11.20;66.30;;;;;;4106147;28;20627;-85
2023/09/15 02:37:49;;;;;;;;;;;11.10;66.40;;;;;;4106335;28;19922;-85
2023/09/15 02:39:49;;;;;;;;;;;11.10;66.50;;;;;;4122431;28;19917;-85
2023/09/15 02:41:50;;;;;;;;;;;11.10;66.50;;;;;;4118361;28;19914;-85
2023/09/15 02:43:51;;;;;;;;;;;11.00;66.50;;;;;;4089601;28;19915;-85
2023/09/15 02:45:52;;;;;;;;;;;11.00;66.50;;;;;;4104015;28;19914;-85
2023/09/15 02:47:52;;;;;;;;;;;11.00;66.40;;;;;;4105346;28;19918;-85
2023/09/15 02:49:53;;;;;;;;;;;10.90;66.40;;;;;;4102828;28;19914;-85
2023/09/15 02:52:07;;;;;;;;;;;;;;;;;;;;;
2023/09/15 02:54:16;;;;;;;;;;;10.90;66.50;;;;;;4117732;28;19918;-85
2023/09/15 02:56:18;;;;;;;;;;;10.90;66.60;;;;;;4104888;28;19926;-85
2023/09/15 02:58:19;;;;;;;;;;;10.90;66.50;;;;;;4103090;28;20364;-85
2023/09/15 03:00:20;;;;;;;;;;;10.80;66.50;;;;;;4103043;28;19914;-85
2023/09/15 03:02:21;;;;;;;;;;;10.90;66.60;;;;;;4104520;28;19918;-85
2023/09/15 03:04:38;;;;;;;;;;;10.80;66.60;;;;;;4102125;28;20387;-85
2023/09/15 03:06:59;;;;;;;;;;;10.90;66.70;;;;;;4086842;28;20352;-85
2023/09/15 03:13:22;;;;;;;;;;;10.70;66.50;;;;;;3358129;26;19930;-86
2023/09/15 03:15:43;;;;;;;;;;;10.60;66.60;;;;;;4120522;28;19977;-85
2023/09/15 03:18:04;;;;;;;;;;;10.60;66.60;;;;;;4139990;28;19918;-85
2023/09/15 03:20:28;;;;;;;;;;;10.60;66.60;;;;;;4145091;28;19914;-85
2023/09/15 03:22:50;;;;;;;;;;;10.60;66.70;;;;;;4129576;28;19918;-85
2023/09/15 03:25:11;;;;;;;;;;;10.60;66.70;;;;;;4132214;28;19922;-85
2023/09/15 03:27:32;;;;;;;;;;;10.60;67.00;;;;;;4119941;28;19917;-85
2023/09/15 03:29:52;;;;;;;;;;;10.50;66.70;;;;;;4119530;28;19950;-85
2023/09/15 03:32:13;;;;;;;;;;;10.40;66.60;;;;;;4120244;28;19941;-85
2023/09/15 03:34:37;;;;;;;;;;;10.40;66.70;;;;;;4119160;28;19929;-85
2023/09/15 03:36:59;;;;;;;;;;;10.40;66.70;;;;;;4114415;28;19961;-86
2023/09/15 03:39:20;;;;;;;;;;;10.40;66.70;;;;;;4119256;28;19918;-85
2023/09/15 03:41:41;;;;;;;;;;;10.40;66.90;;;;;;4118450;28;19924;-86
2023/09/15 03:44:01;;;;;;;;;;;10.40;66.90;;;;;;4116563;28;19921;-87
2023/09/15 03:46:22;;;;;;;;;;;10.40;67.10;;;;;;4117033;28;19917;-86
2023/09/15 03:48:42;;;;;;;;;;;10.40;67.20;;;;;;4117439;28;19929;-86
2023/09/15 03:51:03;;;;;;;;;;;10.40;67.20;;;;;;4118951;28;19920;-87
2023/09/15 03:53:23;;;;;;;;;;;10.40;67.20;;;;;;4116782;28;19921;-87
2023/09/15 03:55:44;;;;;;;;;;;10.40;67.60;;;;;;4118881;28;19917;-87
2023/09/15 03:58:05;;;;;;;;;;;10.40;67.60;;;;;;4120676;28;19925;-87
2023/09/15 04:00:25;;;;;;;;;;;10.30;67.60;;;;;;4118876;28;19921;-87
2023/09/15 04:02:46;;;;;;;;;;;10.30;67.50;;;;;;4130518;28;19929;-87
2023/09/15 04:05:07;;;;;;;;;;;10.40;67.60;;;;;;4140301;28;19914;-85
2023/09/15 04:07:27;;;;;;;;;;;10.30;67.40;;;;;;4141738;28;19918;-87
2023/09/15 04:09:51;;;;;;;;;;;10.40;67.60;;;;;;4126053;28;19921;-87
2023/09/15 04:12:12;;;;;;;;;;;10.40;67.50;;;;;;4118884;28;19918;-86
2023/09/15 04:14:34;;;;;;;;;;;10.40;67.50;;;;;;4117495;28;19926;-87
2023/09/15 04:16:55;;;;;;;;;;;10.40;67.60;;;;;;4122269;28;19928;-87
2023/09/15 04:19:15;;;;;;;;;;;10.40;67.70;;;;;;4124165;28;19926;-87
2023/09/15 04:21:38;;;;;;;;;;;10.40;67.60;;;;;;4127477;28;19918;-87
2023/09/15 04:23:58;;;;;;;;;;;10.40;67.60;;;;;;4142017;28;19910;-89
2023/09/15 04:26:20;;;;;;;;;;;10.40;67.70;;;;;;4124672;28;19922;-88
2023/09/15 04:28:41;;;;;;;;;;;10.40;67.70;;;;;;4117813;28;19993;-85
2023/09/15 04:31:03;;;;;;;;;;;10.40;67.80;;;;;;4130181;28;20642;-86
2023/09/15 04:33:29;;;;;;;;;;;10.40;67.80;;;;;;4118672;28;19925;-89
2023/09/15 04:35:50;;;;;;;;;;;10.40;67.70;;;;;;4131310;28;20450;-87
2023/09/15 04:38:13;;;;;;;;;;;10.40;67.70;;;;;;4119973;28;19918;-85
2023/09/15 04:40:19;;;;;;;;;;;10.50;67.80;;;;;;4144810;23;19956;-85
2023/09/15 04:42:40;;;;;;;;;;;10.40;67.70;;;;;;4139346;28;19917;-85
2023/09/15 04:45:02;;;;;;;;;;;10.50;67.80;;;;;;4136505;28;19921;-87
2023/09/15 04:47:36;;;;;;;;;;;10.40;67.70;;;;;;4137789;28;19987;-85
2023/09/15 04:49:57;;;;;;;;;;;10.40;67.70;;;;;;4128440;28;20009;-86
2023/09/15 04:52:17;;;;;;;;;;;10.40;67.80;;;;;;4128739;28;20019;-85
2023/09/15 04:54:38;;;;;;;;;;;10.50;68.00;;;;;;4129199;28;20367;-86
2023/09/15 04:56:59;;;;;;;;;;;10.50;68.00;;;;;;4126714;28;19973;-87
2023/09/15 04:59:19;;;;;;;;;;;10.40;68.00;;;;;;4141152;28;19964;-86
2023/09/15 05:01:40;;;;;;;;;;;10.50;68.00;;;;;;4127104;28;20519;-85
2023/09/15 05:04:01;;;;;;;;;;;10.50;68.00;;;;;;4123754;28;19914;-85
2023/09/15 05:06:24;;;;;;;;;;;10.50;68.00;;;;;;4124225;28;20012;-86
2023/09/15 05:08:45;;;;;;;;;;;10.40;68.10;;;;;;4127958;28;19926;-85
2023/09/15 05:11:06;;;;;;;;;;;10.40;68.10;;;;;;4124976;28;19953;-85
2023/09/15 05:13:26;;;;;;;;;;;10.50;68.00;;;;;;4126331;28;19914;-86
2023/09/15 05:15:47;;;;;;;;;;;10.50;68.20;;;;;;4120869;28;19921;-86
2023/09/15 05:18:08;;;;;;;;;;;10.50;68.20;;;;;;4120640;28;19922;-85
2023/09/15 05:20:37;;;;;;;;;;;10.50;68.30;;;;;;4125055;28;19952;-88
2023/09/15 05:22:58;;;;;;;;;;;10.50;68.20;;;;;;4123899;28;20299;-85
2023/09/15 05:25:17;;;;;;;;;;;10.60;68.50;;;;;;4126055;28;20713;-85
2023/09/15 05:27:36;;;;;;;;;;;10.60;68.50;;;;;;4126921;28;20652;-85
2023/09/15 05:29:56;;;;;;;;;;;10.60;68.60;;;;;;4124776;28;19968;-85
2023/09/15 05:32:15;;;;;;;;;;;10.50;68.50;;;;;;4142438;28;20516;-86
2023/09/15 05:34:34;;;;;;;;;;;10.60;68.60;;;;;;4125694;28;20020;-85
2023/09/15 05:36:54;;;;;;;;;;;10.60;68.60;;;;;;4127646;28;19928;-85
2023/09/15 05:39:12;;;;;;;;;;;10.60;68.70;;;;;;4120770;28;19968;-85
2023/09/15 05:41:32;;;;;;;;;;;10.70;69.50;;;;;;4126312;28;19922;-85
2023/09/15 05:43:51;;;;;;;;;;;10.70;68.70;;;;;;4129616;28;19979;-85
2023/09/15 05:46:13;;;;;;;;;;;10.70;68.80;;;;;;4125429;28;19929;-85
2023/09/15 05:48:33;;;;;;;;;;;10.70;68.80;;;;;;4124762;28;19964;-85
2023/09/15 05:50:52;;;;;;;;;;;10.80;68.90;;;;;;4122590;28;19928;-86
2023/09/15 05:53:13;;;;;;;;;;;10.80;69.00;;;;;;4125472;28;19916;-85
2023/09/15 05:55:33;;;;;;;;;;;10.80;69.80;;;;;;4126145;28;19956;-85
2023/09/15 05:57:52;;;;;;;;;;;10.80;69.10;;;;;;4140052;28;20055;-86
2023/09/15 06:00:12;;;;;;;;;;;10.90;69.30;;;;;;4131286;28;19929;-86
2023/09/15 06:02:31;;;;;;;;;;;10.90;69.20;;;;;;4133914;28;19920;-85
2023/09/15 06:04:50;;;;;;;;;;;11.10;69.80;;;;;;4135999;28;19943;-86
2023/09/15 06:07:10;;;;;;;;;;;11.10;70.40;;;;;;4127833;28;19972;-86
2023/09/15 06:09:29;;;;;;;;;;;11.10;70.60;;;;;;4127649;28;19913;-85
2023/09/15 06:11:48;;;;;;;;;;;11.10;70.20;;;;;;4139383;28;20005;-86
2023/09/15 06:14:08;;;;;;;;;;;11.30;70.10;;;;;;4126331;28;19964;-85
2023/09/15 06:16:27;;;;;;;;;;;11.30;69.80;;;;;;4126785;28;19925;-86
2023/09/15 06:18:47;;;;;;;;;;;11.40;69.70;;;;;;4131371;28;19976;-85
2023/09/15 06:21:06;;;;;;;;;;;11.50;70.60;;;;;;4127071;28;19968;-86
2023/09/15 06:23:25;;;;;;;;;;;11.50;69.70;;;;;;4136431;28;19921;-85
2023/09/15 06:25:46;;;;;;;;;;;11.70;69.60;;;;;;4132878;28;20390;-85
2023/09/15 06:28:06;;;;;;;;;;;11.80;69.60;;;;;;4132548;28;19916;-86
2023/09/15 06:30:25;;;;;;;;;;;11.80;69.70;;;;;;4128847;28;19972;-86
2023/09/15 06:32:44;;;;;;;;;;;11.90;69.70;;;;;;4143345;28;20001;-87
2023/09/15 06:35:04;;;;;;;;;;;11.90;70.30;;;;;;4128425;28;20377;-86
2023/09/15 06:37:23;;;;;;;;;;;12.10;69.60;;;;;;4128967;28;19953;-87
2023/09/15 06:39:42;;;;;;;;;;;12.20;70.30;;;;;;4141681;28;20049;-86
2023/09/15 06:42:04;;;;;;;;;;;12.20;69.50;;;;;;4128764;28;19915;-86
2023/09/15 06:44:24;;;;;;;;;;;12.30;69.50;;;;;;4130711;28;20699;-85
2023/09/15 06:46:47;;;;;;;;;;;12.30;69.40;;;;;;4137163;28;19924;-85
2023/09/15 06:49:06;;;;;;;;;;;12.50;69.60;;;;;;4130429;28;19921;-85
2023/09/15 06:51:27;;;;;;;;;;;12.60;69.40;;;;;;4129353;28;19988;-86
2023/09/15 06:53:47;;;;;;;;;;;12.70;69.40;;;;;;4133883;28;19964;-86
2023/09/15 06:56:06;;;;;;;;;;;12.80;69.50;;;;;;4144410;28;20020;-86
2023/09/15 06:58:26;;;;;;;;;;;12.90;69.40;;;;;;4137020;28;20044;-86
2023/09/15 07:00:45;;;;;;;;;;;13.00;69.40;;;;;;4133624;28;19929;-86
2023/09/15 07:03:05;;;;;;;;;;;13.10;69.30;;;;;;4130076;28;20211;-86
2023/09/15 07:05:24;;;;;;;;;;;13.20;69.30;;;;;;4128695;28;20000;-86
2023/09/15 07:07:43;;;;;;;;;;;13.30;69.20;;;;;;4124023;28;19921;-86
2023/09/15 07:10:04;;;;;;;;;;;13.40;70.00;;;;;;4124785;28;19924;-87
2023/09/15 07:12:20;;;;;;;;;;;13.40;69.50;;;;;;4129463;28;19980;-86
2023/09/15 07:14:40;;;;;;;;;;;13.50;69.80;;;;;;4126984;28;19924;-86
2023/09/15 07:16:59;;;;;;;;;;;13.60;70.40;;;;;;4141020;28;19956;-86
2023/09/15 07:19:18;;;;;;;;;;;13.70;70.20;;;;;;4129467;28;19992;-86
2023/09/15 07:21:40;;;;;;;;;;;13.90;69.50;;;;;;4135455;28;20362;-87
2023/09/15 07:24:00;;;;;;;;;;;14.00;69.50;;;;;;4126408;28;20519;-87
2023/09/15 07:26:19;;;;;;;;;;;14.10;69.60;;;;;;4134664;28;19989;-86
2023/09/15 07:28:39;;;;;;;;;;;14.20;69.50;;;;;;4137992;28;20436;-87
2023/09/15 07:31:05;;;;;;;;;;;14.30;69.60;;;;;;4131941;28;19929;-86
2023/09/15 07:33:33;;;;;;;;;;;14.40;69.40;;;;;;4126806;28;19921;-87
2023/09/15 07:35:57;;;;;;;;;;;14.50;69.50;;;;;;4126615;28;19945;-86
2023/09/15 07:38:16;;;;;;;;;;;14.70;69.40;;;;;;4130719;28;20029;-86
2023/09/15 07:40:36;;;;;;;;;;;14.70;69.40;;;;;;4128708;28;20729;-86
2023/09/15 07:42:55;;;;;;;;;;;14.80;69.40;;;;;;4132389;28;19916;-87
2023/09/15 07:45:20;;;;;;;;;;;14.90;69.20;;;;;;4133624;28;19976;-86
2023/09/15 07:47:39;;;;;;;;;;;15.00;69.10;;;;;;4131225;28;19921;-86
2023/09/15 07:49:59;;;;;;;;;;;15.10;68.80;;;;;;4132056;28;19941;-87
2023/09/15 07:52:22;;;;;;;;;;;15.20;68.70;;;;;;4134060;28;20125;-87
2023/09/15 07:54:41;;;;;;;;;;;15.40;68.70;;;;;;4126616;28;19960;-89
2023/09/15 07:57:00;;;;;;;;;;;15.40;68.70;;;;;;4145201;28;19929;-87
2023/09/15 07:59:20;;;;;;;;;;;15.50;68.60;;;;;;4132188;28;19963;-87
2023/09/15 08:02:43;;;;;;;;;;;;;;;;;;;;;
2023/09/15 08:05:03;;;;;;;;;;;15.70;68.30;;;;;;4111255;28;20367;-88
2023/09/15 08:07:35;;;;;;;;;;;15.80;67.70;;;;;;4109720;28;19917;-87
2023/09/15 08:09:56;;;;;;;;;;;15.90;68.10;;;;;;4117021;28;19924;-87
2023/09/15 08:12:18;;;;;;;;;;;15.90;67.90;;;;;;4133282;28;19929;-86
2023/09/15 08:14:38;;;;;;;;;;;16.00;67.50;;;;;;4131952;28;19981;-86
2023/09/15 08:17:00;;;;;;;;;;;16.10;67.40;;;;;;4129908;28;19925;-88
2023/09/15 08:19:23;;;;;;;;;;;16.20;67.10;;;;;;4131285;28;19920;-88
2023/09/15 08:22:05;;;;;;;;;;;16.20;66.70;;;;;;4130728;28;19924;-87
2023/09/15 08:24:23;;;;;;;;;;;16.30;65.70;;;;;;4131163;28;21160;-87
2023/09/15 08:26:43;;;;;;;;;;;16.30;65.50;;;;;;4129485;28;19925;-87
2023/09/15 08:29:19;;;;;;;;;;;16.40;65.80;;;;;;4134049;28;19948;-88
2023/09/15 08:31:57;;;;;;;;;;;16.50;65.80;;;;;;4131993;28;20031;-89
2023/09/15 08:34:17;;;;;;;;;;;16.60;65.60;;;;;;4126035;28;20152;-87
2023/09/15 08:37:03;;;;;;;;;;;16.70;65.50;;;;;;4121728;28;19925;-88
2023/09/15 08:39:22;;;;;;;;;;;16.70;64.60;;;;;;4127437;28;20625;-88
2023/09/15 08:42:10;;;;;;;;;;;16.80;65.80;;;;;;4130596;28;19944;-87
2023/09/15 08:44:35;;;;;;;;;;;16.90;65.60;;;;;;4126539;28;19928;-88
2023/09/15 08:46:57;;;;;;;;;;;16.90;64.80;;;;;;4137175;28;19945;-88
2023/09/15 08:49:36;;;;;;;;;;;17.10;64.90;;;;;;4127239;28;19925;-87
2023/09/15 08:51:56;;;;;;;;;;;17.10;64.60;;;;;;4132120;28;19964;-87
2023/09/15 08:54:18;;;;;;;;;;;17.10;64.90;;;;;;4134708;28;19928;-89
2023/09/15 08:56:45;;;;;;;;;;;17.30;64.80;;;;;;4145580;28;19978;-88
2023/09/15 08:59:08;;;;;;;;;;;17.40;64.70;;;;;;4151247;28;19964;-87
2023/09/15 09:01:32;;;;;;;;;;;17.50;64.60;;;;;;4145607;28;19927;-88
2023/09/15 09:04:18;;;;;;;;;;;17.60;64.60;;;;;;4134393;28;19973;-90
2023/09/15 09:06:56;;;;;;;;;;;;;;;;;;;;;
2023/09/15 09:09:25;;;;;;;;;;;17.70;64.60;;;;;;4135497;28;19972;-90
2023/09/15 09:14:38;;;;;;;;;;;17.90;63.10;;;;;;4122371;28;19928;-89
2023/09/15 09:16:55;;;;;;;;;;;18.00;63.30;;;;;;4124974;28;19921;-88
2023/09/15 09:19:03;;;;;;;;;;;18.00;62.50;;;;;;4125192;28;20520;-89
2023/09/15 09:23:56;;;;;;;;;;;18.10;60.80;;;;;;4129935;28;19956;-87
2023/09/15 09:26:00;;;;;;;;;;;18.20;62.10;;;;;;4130089;28;19936;-88
2023/09/15 09:28:20;;;;;;;;;;;18.30;62.30;;;;;;4129565;28;19925;-88
2023/09/15 09:30:47;;;;;;;;;;;18.40;62.00;;;;;;4132345;28;19914;-87
2023/09/15 09:32:54;;;;;;;;;;;18.40;61.70;;;;;;4134702;28;19937;-89
2023/09/15 09:34:57;;;;;;;;;;;18.60;62.10;;;;;;4127390;28;20024;-89
2023/09/15 09:36:58;;;;;;;;;;;18.60;62.40;;;;;;4115045;28;19922;-87
2023/09/15 09:41:44;;;;;;;;;;;18.70;61.40;;;;;;4130781;28;20439;-88
2023/09/15 09:43:52;;;;;;;;;;;18.70;61.00;;;;;;4124947;28;19921;-88
2023/09/15 09:46:09;;;;;;;;;;;18.90;60.80;;;;;;4130988;28;19917;-89
2023/09/15 09:48:16;;;;;;;;;;;18.90;61.40;;;;;;4114807;28;20483;-88
2023/09/15 09:50:20;;;;;;;;;;;18.90;61.10;;;;;;4128580;28;19957;-89
2023/09/15 09:52:39;;;;;;;;;;;19.10;61.00;;;;;;4129167;28;19922;-89
2023/09/15 09:54:44;;;;;;;;;;;19.10;60.80;;;;;;4123943;28;19918;-87
2023/09/15 09:56:54;;;;;;;;;;;19.20;59.70;;;;;;4146593;28;19924;-88
2023/09/15 09:59:02;;;;;;;;;;;19.20;58.70;;;;;;4131983;28;19988;-88
2023/09/15 10:01:13;;;;;;;;;;;19.30;59.40;;;;;;4146511;28;19917;-90
2023/09/15 10:03:14;;;;;;;;;;;19.30;59.30;;;;;;4129407;28;19922;-87
2023/09/15 10:05:30;;;;;;;;;;;19.30;57.70;;;;;;4128909;28;20380;-88
2023/09/15 10:07:37;;;;;;;;;;;19.40;55.80;;;;;;4133371;28;19913;-88
2023/09/15 10:09:43;;;;;;;;;;;19.40;56.70;;;;;;4111743;28;19917;-88
2023/09/15 10:11:49;;;;;;;;;;;19.40;57.60;;;;;;4131891;28;19921;-88
2023/09/15 10:14:06;;;;;;;;;;;19.50;57.90;;;;;;4129089;28;19981;-90
2023/09/15 10:16:39;;;;;;;;;;;19.50;58.00;;;;;;4140043;28;19928;-88
2023/09/15 10:18:44;;;;;;;;;;;19.60;58.00;;;;;;4149691;28;19928;-89
2023/09/15 10:21:08;;;;;;;;;;;19.60;57.70;;;;;;4138000;28;20319;-88
2023/09/15 10:23:35;;;;;;;;;;;19.60;58.10;;;;;;4131027;28;19960;-88
2023/09/15 10:25:57;;;;;;;;;;;19.70;57.70;;;;;;4134584;28;19961;-87
2023/09/15 10:28:21;;;;;;;;;;;19.70;56.20;;;;;;4139079;28;19937;-88
2023/09/15 10:30:42;;;;;;;;;;;19.80;56.90;;;;;;4129826;28;20491;-89
2023/09/15 10:33:11;;;;;;;;;;;19.80;56.40;;;;;;4129801;28;19913;-89
2023/09/15 10:35:38;;;;;;;;;;;19.80;56.50;;;;;;4127581;28;19918;-88
2023/09/15 10:38:02;;;;;;;;;;;19.90;54.40;;;;;;4127224;28;20358;-88
2023/09/15 10:42:50;;;;;;;;;;;19.90;54.30;;;;;;4190834;23;20347;-87
2023/09/15 10:45:13;;;;;;;;;;;19.90;55.10;;;;;;4138219;28;20018;-88
2023/09/15 10:47:34;;;;;;;;;;;20.00;55.60;;;;;;4141493;28;20432;-89
2023/09/15 10:50:05;;;;;;;;;;;20.10;56.20;;;;;;4125839;28;20177;-89
2023/09/15 10:52:35;;;;;;;;;;;20.10;55.70;;;;;;4119471;28;20311;-89
2023/09/15 10:55:07;;;;;;;;;;;20.20;55.80;;;;;;4122043;28;20447;-88
2023/09/15 10:57:28;;;;;;;;;;;20.20;55.80;;;;;;4124647;28;19945;-88
2023/09/15 10:59:56;;;;;;;;;;;20.30;55.30;;;;;;4138529;28;19913;-88
2023/09/15 11:02:00;;;;;;;;;;;20.30;55.10;;;;;;4134925;28;20008;-89
2023/09/15 11:04:04;;;;;;;;;;;20.30;51.90;;;;;;4123149;28;19921;-88
2023/09/15 11:06:10;;;;;;;;;;;20.30;53.80;;;;;;4107763;28;19997;-87
2023/09/15 11:08:17;;;;;;;;;;;20.40;52.40;;;;;;4138267;28;19928;-87
2023/09/15 11:10:18;;;;;;;;;;;20.40;54.10;;;;;;4122300;28;19928;-88
2023/09/15 11:12:46;;;;;;;;;;;20.40;54.40;;;;;;4126678;28;20256;-88
2023/09/15 11:15:32;;;;;;;;;;;20.50;54.70;;;;;;4129079;28;20009;-88
2023/09/15 11:17:33;;;;;;;;;;;20.50;53.70;;;;;;4124606;28;19924;-89
2023/09/15 11:19:54;;;;;;;;;;;20.60;54.60;;;;;;4124208;28;19922;-88
2023/09/15 11:22:10;;;;;;;;;;;20.60;55.00;;;;;;4113003;28;19922;-87
2023/09/15 11:24:33;;;;;;;;;;;20.60;54.50;;;;;;4123702;28;19914;-90
2023/09/15 11:26:58;;;;;;;;;;;20.60;53.00;;;;;;4126699;28;19918;-86
2023/09/15 11:29:30;;;;;;;;;;;20.60;51.10;;;;;;4132190;28;19965;-86
2023/09/15 11:31:51;;;;;;;;;;;20.60;52.40;;;;;;4129047;28;20502;-87
2023/09/15 11:34:18;;;;;;;;;;;20.60;52.10;;;;;;4129148;28;20212;-87
2023/09/15 11:36:38;;;;;;;;;;;20.60;52.70;;;;;;4122155;28;19969;-87
2023/09/15 11:39:17;;;;;;;;;;;20.60;53.30;;;;;;4123187;28;19940;-88
2023/09/15 11:41:54;;;;;;;;;;;20.60;51.20;;;;;;4125956;28;19918;-87
2023/09/15 11:44:26;;;;;;;;;;;20.60;51.30;;;;;;4121325;28;20000;-88
2023/09/15 11:46:57;;;;;;;;;;;20.70;52.80;;;;;;4126755;28;19922;-87
2023/09/15 11:49:22;;;;;;;;;;;20.70;53.30;;;;;;4171904;22;19929;-88
2023/09/15 11:51:46;;;;;;;;;;;20.80;53.50;;;;;;4119480;28;19917;-87
2023/09/15 11:54:03;;;;;;;;;;;20.70;53.20;;;;;;4100753;28;20021;-88
2023/09/15 11:56:28;;;;;;;;;;;20.70;53.30;;;;;;4093940;28;20623;-88
2023/09/15 11:58:32;;;;;;;;;;;20.80;52.00;;;;;;4084287;28;19919;-87
2023/09/15 12:00:39;;;;;;;;;;;20.90;52.90;;;;;;4107216;28;19925;-87
2023/09/15 12:02:50;;;;;;;;;;;20.90;52.10;;;;;;4104181;28;19922;-87
2023/09/15 12:05:11;;;;;;;;;;;20.90;52.80;;;;;;4105759;28;19922;-88
2023/09/15 12:07:15;;;;;;;;;;;20.90;53.10;;;;;;4081003;28;20905;-88
2023/09/15 12:09:41;;;;;;;;;;;20.90;51.90;;;;;;4106077;28;20005;-87
2023/09/15 12:12:10;;;;;;;;;;;20.90;52.00;;;;;;4113330;28;19926;-87
2023/09/15 12:14:14;;;;;;;;;;;21.00;51.20;;;;;;4090945;28;19966;-86
2023/09/15 12:16:49;;;;;;;;;;;20.90;49.30;;;;;;4113990;28;19925;-87
2023/09/15 12:19:13;;;;;;;;;;;21.00;50.60;;;;;;4117673;28;19964;-88
2023/09/15 12:21:34;;;;;;;;;;;21.00;50.60;;;;;;4107560;28;19922;-88
2023/09/15 12:24:23;;;;;;;;;;;;;;;;;;;;;
2023/09/15 12:26:45;;;;;;;;;;;21.00;50.10;;;;;;4105274;28;19918;-86
2023/09/15 12:29:27;;;;;;;;;;;21.00;51.70;;;;;;4105564;28;19918;-90
2023/09/15 12:31:52;;;;;;;;;;;21.00;51.80;;;;;;4084271;28;20639;-89
2023/09/15 12:34:20;;;;;;;;;;;21.00;49.90;;;;;;4114079;28;21054;-89
2023/09/15 12:36:25;;;;;;;;;;;21.00;50.60;;;;;;4114960;28;19926;-87
2023/09/15 12:38:37;;;;;;;;;;;20.90;49.80;;;;;;4080448;28;20331;-88
2023/09/15 12:40:38;;;;;;;;;;;20.90;50.30;;;;;;4102148;28;20056;-88
2023/09/15 12:42:43;;;;;;;;;;;20.90;51.00;;;;;;4088623;28;19923;-88
2023/09/15 12:45:02;;;;;;;;;;;21.00;51.40;;;;;;4087121;28;20226;-90
2023/09/15 12:47:15;;;;;;;;;;;21.00;51.00;;;;;;4118007;28;19921;-87
2023/09/15 12:49:21;;;;;;;;;;;20.90;51.40;;;;;;4103562;28;20653;-88
2023/09/15 12:51:28;;;;;;;;;;;21.00;51.60;;;;;;4087329;28;19922;-86
2023/09/15 12:53:29;;;;;;;;;;;21.00;51.10;;;;;;4105591;28;20679;-86
2023/09/15 12:55:34;;;;;;;;;;;21.00;51.00;;;;;;4104260;28;19981;-86
2023/09/15 12:58:06;;;;;;;;;;;21.10;51.40;;;;;;4110455;28;19928;-87
2023/09/15 13:00:29;;;;;;;;;;;21.10;51.50;;;;;;4118455;28;19922;-88
2023/09/15 13:02:50;;;;;;;;;;;21.20;51.90;;;;;;4109871;28;19944;-87
2023/09/15 13:05:12;;;;;;;;;;;21.20;52.20;;;;;;4103983;28;20062;-86
2023/09/15 13:07:38;;;;;;;;;;;21.20;52.40;;;;;;4100226;28;19922;-87
2023/09/15 13:10:11;;;;;;;;;;;21.30;51.40;;;;;;4117436;28;19973;-88
2023/09/15 13:12:34;;;;;;;;;;;21.30;51.20;;;;;;4101442;28;19918;-88
2023/09/15 13:14:57;;;;;;;;;;;21.30;51.70;;;;;;4112885;28;19949;-87
2023/09/15 13:17:18;;;;;;;;;;;21.30;51.90;;;;;;4108836;28;19918;-87
2023/09/15 13:19:21;;;;;;;;;;;21.30;50.80;;;;;;4115202;28;20502;-89
2023/09/15 13:21:22;;;;;;;;;;;21.20;51.60;;;;;;4138483;28;19925;-89
2023/09/15 13:23:32;;;;;;;;;;;21.20;51.50;;;;;;4095844;28;19934;-88
2023/09/15 13:25:33;;;;;;;;;;;21.20;51.60;;;;;;4105143;28;19914;-88
2023/09/15 13:27:35;;;;;;;;;;;21.10;51.90;;;;;;4106828;28;20426;-87
2023/09/15 13:29:44;;;;;;;;;;;21.00;51.60;;;;;;4107298;28;19914;-89
2023/09/15 13:31:48;;;;;;;;;;;21.00;51.80;;;;;;4107072;28;20430;-87
2023/09/15 13:33:50;;;;;;;;;;;21.00;52.00;;;;;;4091852;28;19926;-87
2023/09/15 13:35:50;;;;;;;;;;;21.00;52.10;;;;;;4109230;28;19921;-87
2023/09/15 13:38:16;;;;;;;;;;;21.00;52.20;;;;;;4121035;28;19921;-87
2023/09/15 13:40:38;;;;;;;;;;;20.90;52.20;;;;;;4109882;28;20021;-88